sensor_id;sensor_type;location;lat;lon;timestamp;P1;durP1;ratioP1;P2;durP2;ratioP2
56391;SDS011;42289;53.582;9.714;2022-10-10T00:00:47;9.75;;;2.10;;
56391;SDS011;42289;53.582;9.714;2022-10-10T00:03:13;7.40;;;1.83;;
56391;SDS011;42289;53.582;9.714;2022-10-10T00:05:42;5.63;;;2.10;;
56391;SDS011;42289;53.582;9.714;2022-10-10T00:08:08;6.68;;;1.88;;
56391;SDS011;42289;53.582;9.714;2022-10-10T00:10:35;9.20;;;2.10;;
56391;SDS011;42289;53.582;9.714;2022-10-10T00:13:03;4.32;;;1.70;;
56391;SDS011;42289;53.582;9.714;2022-10-10T00:15:30;4.75;;;1.80;;
56391;SDS011;42289;53.582;9.714;2022-10-10T00:17:57;6.65;;;2.20;;
56391;SDS011;42289;53.582;9.714;2022-10-10T00:20:23;5.70;;;1.70;;
56391;SDS011;42289;53.582;9.714;2022-10-10T00:22:51;7.32;;;2.03;;
56391;SDS011;42289;53.582;9.714;2022-10-10T00:25:17;6.95;;;2.03;;
56391;SDS011;42289;53.582;9.714;2022-10-10T00:27:44;5.70;;;2.20;;
56391;SDS011;42289;53.582;9.714;2022-10-10T00:30:10;7.70;;;2.08;;
56391;SDS011;42289;53.582;9.714;2022-10-10T00:32:37;9.48;;;2.17;;
56391;SDS011;42289;53.582;9.714;2022-10-10T00:35:04;6.70;;;1.90;;
56391;SDS011;42289;53.582;9.714;2022-10-10T00:37:31;8.88;;;2.22;;
56391;SDS011;42289;53.582;9.714;2022-10-10T00:39:59;5.88;;;2.10;;
56391;SDS011;42289;53.582;9.714;2022-10-10T00:42:26;6.60;;;2.00;;
56391;SDS011;42289;53.582;9.714;2022-10-10T00:47:46;8.23;;;2.35;;
56391;SDS011;42289;53.582;9.714;2022-10-10T00:50:15;7.78;;;1.92;;
56391;SDS011;42289;53.582;9.714;2022-10-10T00:52:42;7.55;;;2.10;;
56391;SDS011;42289;53.582;9.714;2022-10-10T00:55:10;9.48;;;2.40;;
56391;SDS011;42289;53.582;9.714;2022-10-10T00:57:36;8.35;;;2.22;;
56391;SDS011;42289;53.582;9.714;2022-10-10T01:00:03;6.70;;;2.00;;
56391;SDS011;42289;53.582;9.714;2022-10-10T01:02:30;6.45;;;2.20;;
56391;SDS011;42289;53.582;9.714;2022-10-10T01:04:57;5.35;;;1.80;;
56391;SDS011;42289;53.582;9.714;2022-10-10T01:07:24;7.80;;;2.08;;
56391;SDS011;42289;53.582;9.714;2022-10-10T01:09:54;10.13;;;2.03;;
56391;SDS011;42289;53.582;9.714;2022-10-10T01:12:26;7.57;;;1.90;;
56391;SDS011;42289;53.582;9.714;2022-10-10T01:15:03;6.43;;;2.00;;
56391;SDS011;42289;53.582;9.714;2022-10-10T01:17:39;7.72;;;2.10;;
56391;SDS011;42289;53.582;9.714;2022-10-10T01:23:01;8.98;;;2.20;;
56391;SDS011;42289;53.582;9.714;2022-10-10T01:25:45;4.50;;;2.08;;
56391;SDS011;42289;53.582;9.714;2022-10-10T01:28:25;6.47;;;2.10;;
56391;SDS011;42289;53.582;9.714;2022-10-10T01:31:00;7.70;;;2.53;;
56391;SDS011;42289;53.582;9.714;2022-10-10T01:33:31;5.55;;;1.88;;
56391;SDS011;42289;53.582;9.714;2022-10-10T01:36:03;5.85;;;2.42;;
56391;SDS011;42289;53.582;9.714;2022-10-10T01:38:42;7.05;;;1.98;;
56391;SDS011;42289;53.582;9.714;2022-10-10T01:41:16;4.40;;;2.13;;
56391;SDS011;42289;53.582;9.714;2022-10-10T01:43:52;6.15;;;2.30;;
56391;SDS011;42289;53.582;9.714;2022-10-10T01:46:19;6.88;;;2.20;;
56391;SDS011;42289;53.582;9.714;2022-10-10T01:48:46;6.25;;;2.17;;
56391;SDS011;42289;53.582;9.714;2022-10-10T01:51:19;5.50;;;2.30;;
56391;SDS011;42289;53.582;9.714;2022-10-10T01:53:57;8.75;;;2.30;;
56391;SDS011;42289;53.582;9.714;2022-10-10T01:56:32;7.60;;;2.42;;
56391;SDS011;42289;53.582;9.714;2022-10-10T01:59:11;8.95;;;2.33;;
56391;SDS011;42289;53.582;9.714;2022-10-10T02:01:51;7.47;;;2.28;;
56391;SDS011;42289;53.582;9.714;2022-10-10T02:04:25;5.93;;;2.20;;
56391;SDS011;42289;53.582;9.714;2022-10-10T02:06:59;4.88;;;2.15;;
56391;SDS011;42289;53.582;9.714;2022-10-10T02:09:30;5.65;;;1.90;;
56391;SDS011;42289;53.582;9.714;2022-10-10T02:12:05;12.60;;;2.28;;
56391;SDS011;42289;53.582;9.714;2022-10-10T02:14:36;6.40;;;2.20;;
56391;SDS011;42289;53.582;9.714;2022-10-10T02:17:07;9.60;;;2.22;;
56391;SDS011;42289;53.582;9.714;2022-10-10T02:19:36;6.78;;;2.13;;
56391;SDS011;42289;53.582;9.714;2022-10-10T02:22:03;8.15;;;2.40;;
56391;SDS011;42289;53.582;9.714;2022-10-10T02:24:31;8.65;;;2.60;;
56391;SDS011;42289;53.582;9.714;2022-10-10T02:26:58;7.70;;;2.33;;
56391;SDS011;42289;53.582;9.714;2022-10-10T02:29:30;9.52;;;2.42;;
56391;SDS011;42289;53.582;9.714;2022-10-10T02:32:01;7.07;;;2.35;;
56391;SDS011;42289;53.582;9.714;2022-10-10T02:34:31;6.75;;;2.70;;
56391;SDS011;42289;53.582;9.714;2022-10-10T02:37:02;5.93;;;2.53;;
56391;SDS011;42289;53.582;9.714;2022-10-10T02:39:32;8.73;;;2.58;;
56391;SDS011;42289;53.582;9.714;2022-10-10T02:42:02;9.20;;;2.47;;
56391;SDS011;42289;53.582;9.714;2022-10-10T02:44:30;7.88;;;2.50;;
56391;SDS011;42289;53.582;9.714;2022-10-10T02:46:57;8.25;;;2.90;;
56391;SDS011;42289;53.582;9.714;2022-10-10T02:49:26;6.95;;;2.38;;
56391;SDS011;42289;53.582;9.714;2022-10-10T02:51:54;6.10;;;2.40;;
56391;SDS011;42289;53.582;9.714;2022-10-10T02:54:21;7.97;;;2.55;;
56391;SDS011;42289;53.582;9.714;2022-10-10T02:56:47;7.43;;;2.63;;
56391;SDS011;42289;53.582;9.714;2022-10-10T02:59:14;5.38;;;2.30;;
56391;SDS011;42289;53.582;9.714;2022-10-10T03:01:40;7.95;;;2.40;;
56391;SDS011;42289;53.582;9.714;2022-10-10T03:04:07;8.90;;;2.50;;
56391;SDS011;42289;53.582;9.714;2022-10-10T03:06:35;9.07;;;2.30;;
56391;SDS011;42289;53.582;9.714;2022-10-10T03:09:01;6.00;;;2.28;;
56391;SDS011;42289;53.582;9.714;2022-10-10T03:11:28;6.82;;;2.20;;
56391;SDS011;42289;53.582;9.714;2022-10-10T03:13:55;8.05;;;2.60;;
56391;SDS011;42289;53.582;9.714;2022-10-10T03:16:21;5.88;;;2.40;;
56391;SDS011;42289;53.582;9.714;2022-10-10T03:18:47;9.18;;;2.22;;
56391;SDS011;42289;53.582;9.714;2022-10-10T03:21:14;8.30;;;2.20;;
56391;SDS011;42289;53.582;9.714;2022-10-10T03:23:42;7.68;;;2.17;;
56391;SDS011;42289;53.582;9.714;2022-10-10T03:26:08;7.47;;;2.33;;
56391;SDS011;42289;53.582;9.714;2022-10-10T03:28:35;9.63;;;2.85;;
56391;SDS011;42289;53.582;9.714;2022-10-10T03:31:02;8.88;;;2.45;;
56391;SDS011;42289;53.582;9.714;2022-10-10T03:33:28;8.35;;;2.30;;
56391;SDS011;42289;53.582;9.714;2022-10-10T03:35:54;11.80;;;2.45;;
56391;SDS011;42289;53.582;9.714;2022-10-10T03:38:21;5.82;;;2.33;;
56391;SDS011;42289;53.582;9.714;2022-10-10T03:40:49;7.75;;;2.40;;
56391;SDS011;42289;53.582;9.714;2022-10-10T03:43:15;6.63;;;2.63;;
56391;SDS011;42289;53.582;9.714;2022-10-10T03:45:42;11.10;;;2.38;;
56391;SDS011;42289;53.582;9.714;2022-10-10T03:48:10;7.50;;;2.40;;
56391;SDS011;42289;53.582;9.714;2022-10-10T03:50:36;9.30;;;3.20;;
56391;SDS011;42289;53.582;9.714;2022-10-10T03:53:03;7.68;;;3.17;;
56391;SDS011;42289;53.582;9.714;2022-10-10T03:55:30;9.70;;;2.88;;
56391;SDS011;42289;53.582;9.714;2022-10-10T03:57:58;7.75;;;2.80;;
56391;SDS011;42289;53.582;9.714;2022-10-10T04:00:25;7.43;;;2.67;;
56391;SDS011;42289;53.582;9.714;2022-10-10T04:02:51;8.13;;;2.55;;
56391;SDS011;42289;53.582;9.714;2022-10-10T04:05:18;8.77;;;2.80;;
56391;SDS011;42289;53.582;9.714;2022-10-10T04:07:44;7.85;;;2.65;;
56391;SDS011;42289;53.582;9.714;2022-10-10T04:10:10;8.23;;;2.60;;
56391;SDS011;42289;53.582;9.714;2022-10-10T04:12:37;7.82;;;2.35;;
56391;SDS011;42289;53.582;9.714;2022-10-10T04:15:05;10.02;;;2.97;;
56391;SDS011;42289;53.582;9.714;2022-10-10T04:17:32;5.72;;;2.20;;
56391;SDS011;42289;53.582;9.714;2022-10-10T04:19:58;8.25;;;2.67;;
56391;SDS011;42289;53.582;9.714;2022-10-10T04:22:25;9.18;;;2.50;;
56391;SDS011;42289;53.582;9.714;2022-10-10T04:24:51;6.68;;;2.78;;
56391;SDS011;42289;53.582;9.714;2022-10-10T04:27:17;7.78;;;2.67;;
56391;SDS011;42289;53.582;9.714;2022-10-10T04:29:44;7.70;;;2.47;;
56391;SDS011;42289;53.582;9.714;2022-10-10T04:32:12;9.80;;;2.80;;
56391;SDS011;42289;53.582;9.714;2022-10-10T04:34:38;6.72;;;2.50;;
56391;SDS011;42289;53.582;9.714;2022-10-10T04:37:04;7.05;;;2.50;;
56391;SDS011;42289;53.582;9.714;2022-10-10T04:39:31;6.60;;;2.85;;
56391;SDS011;42289;53.582;9.714;2022-10-10T04:41:57;9.25;;;2.92;;
56391;SDS011;42289;53.582;9.714;2022-10-10T04:44:24;9.43;;;2.67;;
56391;SDS011;42289;53.582;9.714;2022-10-10T04:46:50;7.47;;;3.00;;
56391;SDS011;42289;53.582;9.714;2022-10-10T04:49:18;9.07;;;2.95;;
56391;SDS011;42289;53.582;9.714;2022-10-10T04:51:44;7.75;;;2.90;;
56391;SDS011;42289;53.582;9.714;2022-10-10T04:54:11;6.90;;;2.75;;
56391;SDS011;42289;53.582;9.714;2022-10-10T04:56:37;8.15;;;2.83;;
56391;SDS011;42289;53.582;9.714;2022-10-10T04:59:06;11.90;;;2.90;;
56391;SDS011;42289;53.582;9.714;2022-10-10T05:01:33;8.18;;;2.90;;
56391;SDS011;42289;53.582;9.714;2022-10-10T05:03:59;8.50;;;2.97;;
56391;SDS011;42289;53.582;9.714;2022-10-10T05:06:27;9.25;;;2.90;;
56391;SDS011;42289;53.582;9.714;2022-10-10T05:08:53;9.48;;;2.80;;
56391;SDS011;42289;53.582;9.714;2022-10-10T05:11:20;9.27;;;2.60;;
56391;SDS011;42289;53.582;9.714;2022-10-10T05:13:46;7.78;;;2.80;;
56391;SDS011;42289;53.582;9.714;2022-10-10T05:16:14;8.38;;;3.15;;
56391;SDS011;42289;53.582;9.714;2022-10-10T05:18:40;9.23;;;2.75;;
56391;SDS011;42289;53.582;9.714;2022-10-10T05:21:07;7.97;;;2.72;;
56391;SDS011;42289;53.582;9.714;2022-10-10T05:23:37;7.35;;;2.92;;
56391;SDS011;42289;53.582;9.714;2022-10-10T05:26:05;13.90;;;2.72;;
56391;SDS011;42289;53.582;9.714;2022-10-10T05:28:31;10.55;;;2.63;;
56391;SDS011;42289;53.582;9.714;2022-10-10T05:31:00;9.07;;;2.80;;
56391;SDS011;42289;53.582;9.714;2022-10-10T05:33:27;6.18;;;2.50;;
56391;SDS011;42289;53.582;9.714;2022-10-10T05:35:59;9.77;;;2.55;;
56391;SDS011;42289;53.582;9.714;2022-10-10T05:38:27;8.43;;;2.90;;
56391;SDS011;42289;53.582;9.714;2022-10-10T05:40:54;6.05;;;3.05;;
56391;SDS011;42289;53.582;9.714;2022-10-10T05:43:21;10.10;;;3.15;;
56391;SDS011;42289;53.582;9.714;2022-10-10T05:45:47;7.50;;;2.67;;
56391;SDS011;42289;53.582;9.714;2022-10-10T05:48:14;7.35;;;3.20;;
56391;SDS011;42289;53.582;9.714;2022-10-10T05:50:44;5.10;;;2.70;;
56391;SDS011;42289;53.582;9.714;2022-10-10T05:53:12;7.53;;;2.80;;
56391;SDS011;42289;53.582;9.714;2022-10-10T05:55:39;9.15;;;2.72;;
56391;SDS011;42289;53.582;9.714;2022-10-10T05:58:06;9.77;;;3.00;;
56391;SDS011;42289;53.582;9.714;2022-10-10T06:00:33;7.00;;;2.85;;
56391;SDS011;42289;53.582;9.714;2022-10-10T06:03:00;11.00;;;3.17;;
56391;SDS011;42289;53.582;9.714;2022-10-10T06:05:27;8.35;;;3.00;;
56391;SDS011;42289;53.582;9.714;2022-10-10T06:07:54;7.88;;;3.00;;
56391;SDS011;42289;53.582;9.714;2022-10-10T06:10:20;6.70;;;3.20;;
56391;SDS011;42289;53.582;9.714;2022-10-10T06:12:46;11.70;;;3.47;;
56391;SDS011;42289;53.582;9.714;2022-10-10T06:15:14;8.15;;;3.38;;
56391;SDS011;42289;53.582;9.714;2022-10-10T06:17:41;9.32;;;3.20;;
56391;SDS011;42289;53.582;9.714;2022-10-10T06:20:07;8.98;;;3.50;;
56391;SDS011;42289;53.582;9.714;2022-10-10T06:22:34;11.45;;;3.13;;
56391;SDS011;42289;53.582;9.714;2022-10-10T06:25:01;10.63;;;3.40;;
56391;SDS011;42289;53.582;9.714;2022-10-10T06:27:27;8.60;;;3.65;;
56391;SDS011;42289;53.582;9.714;2022-10-10T06:29:54;9.80;;;3.20;;
56391;SDS011;42289;53.582;9.714;2022-10-10T06:32:21;7.97;;;3.28;;
56391;SDS011;42289;53.582;9.714;2022-10-10T06:34:48;10.02;;;3.25;;
56391;SDS011;42289;53.582;9.714;2022-10-10T06:37:14;7.60;;;2.90;;
56391;SDS011;42289;53.582;9.714;2022-10-10T06:39:40;12.93;;;5.07;;
56391;SDS011;42289;53.582;9.714;2022-10-10T06:42:07;7.40;;;3.42;;
56391;SDS011;42289;53.582;9.714;2022-10-10T06:44:33;9.95;;;3.67;;
56391;SDS011;42289;53.582;9.714;2022-10-10T06:47:00;7.40;;;3.20;;
56391;SDS011;42289;53.582;9.714;2022-10-10T06:49:27;8.68;;;3.03;;
56391;SDS011;42289;53.582;9.714;2022-10-10T06:51:54;11.13;;;3.22;;
56391;SDS011;42289;53.582;9.714;2022-10-10T06:54:20;6.13;;;2.83;;
56391;SDS011;42289;53.582;9.714;2022-10-10T06:56:47;6.78;;;3.08;;
56391;SDS011;42289;53.582;9.714;2022-10-10T06:59:13;8.35;;;3.08;;
56391;SDS011;42289;53.582;9.714;2022-10-10T07:01:40;7.35;;;3.22;;
56391;SDS011;42289;53.582;9.714;2022-10-10T07:04:09;10.13;;;3.22;;
56391;SDS011;42289;53.582;9.714;2022-10-10T07:06:38;5.38;;;2.45;;
56391;SDS011;42289;53.582;9.714;2022-10-10T07:09:04;8.02;;;2.70;;
56391;SDS011;42289;53.582;9.714;2022-10-10T07:11:31;8.98;;;3.15;;
56391;SDS011;42289;53.582;9.714;2022-10-10T07:13:57;5.13;;;2.53;;
56391;SDS011;42289;53.582;9.714;2022-10-10T07:16:24;7.88;;;3.10;;
56391;SDS011;42289;53.582;9.714;2022-10-10T07:18:50;9.45;;;2.97;;
56391;SDS011;42289;53.582;9.714;2022-10-10T07:21:17;10.00;;;3.15;;
56391;SDS011;42289;53.582;9.714;2022-10-10T07:23:45;7.53;;;3.10;;
56391;SDS011;42289;53.582;9.714;2022-10-10T07:26:12;6.35;;;2.80;;
56391;SDS011;42289;53.582;9.714;2022-10-10T07:28:40;7.40;;;3.13;;
56391;SDS011;42289;53.582;9.714;2022-10-10T07:31:07;7.97;;;3.00;;
56391;SDS011;42289;53.582;9.714;2022-10-10T07:33:36;10.35;;;2.80;;
56391;SDS011;42289;53.582;9.714;2022-10-10T07:36:04;9.25;;;2.90;;
56391;SDS011;42289;53.582;9.714;2022-10-10T07:38:31;7.40;;;2.85;;
56391;SDS011;42289;53.582;9.714;2022-10-10T07:40:59;7.82;;;2.40;;
56391;SDS011;42289;53.582;9.714;2022-10-10T07:43:25;9.48;;;2.90;;
56391;SDS011;42289;53.582;9.714;2022-10-10T07:45:52;5.25;;;2.65;;
56391;SDS011;42289;53.582;9.714;2022-10-10T07:48:18;7.88;;;2.60;;
56391;SDS011;42289;53.582;9.714;2022-10-10T07:50:45;9.07;;;2.78;;
56391;SDS011;42289;53.582;9.714;2022-10-10T07:53:11;8.05;;;3.03;;
56391;SDS011;42289;53.582;9.714;2022-10-10T07:55:38;9.23;;;2.70;;
56391;SDS011;42289;53.582;9.714;2022-10-10T07:58:06;7.68;;;2.95;;
56391;SDS011;42289;53.582;9.714;2022-10-10T08:00:34;6.28;;;2.90;;
56391;SDS011;42289;53.582;9.714;2022-10-10T08:03:01;9.02;;;3.05;;
56391;SDS011;42289;53.582;9.714;2022-10-10T08:05:27;8.90;;;3.40;;
56391;SDS011;42289;53.582;9.714;2022-10-10T08:07:54;8.32;;;3.30;;
56391;SDS011;42289;53.582;9.714;2022-10-10T08:10:20;7.20;;;2.72;;
56391;SDS011;42289;53.582;9.714;2022-10-10T08:12:47;7.18;;;3.10;;
56391;SDS011;42289;53.582;9.714;2022-10-10T08:15:15;6.18;;;2.72;;
56391;SDS011;42289;53.582;9.714;2022-10-10T08:17:41;7.03;;;2.83;;
56391;SDS011;42289;53.582;9.714;2022-10-10T08:20:08;7.00;;;2.78;;
56391;SDS011;42289;53.582;9.714;2022-10-10T08:22:35;7.95;;;2.90;;
56391;SDS011;42289;53.582;9.714;2022-10-10T08:25:01;5.85;;;2.58;;
56391;SDS011;42289;53.582;9.714;2022-10-10T08:27:27;7.32;;;2.60;;
56391;SDS011;42289;53.582;9.714;2022-10-10T08:29:54;4.97;;;2.28;;
56391;SDS011;42289;53.582;9.714;2022-10-10T08:32:22;5.25;;;2.17;;
56391;SDS011;42289;53.582;9.714;2022-10-10T08:34:48;8.00;;;2.17;;
56391;SDS011;42289;53.582;9.714;2022-10-10T08:37:15;5.32;;;2.25;;
56391;SDS011;42289;53.582;9.714;2022-10-10T08:39:41;5.10;;;2.20;;
56391;SDS011;42289;53.582;9.714;2022-10-10T08:42:08;8.70;;;2.65;;
56391;SDS011;42289;53.582;9.714;2022-10-10T08:44:41;6.25;;;2.40;;
56391;SDS011;42289;53.582;9.714;2022-10-10T08:47:12;8.10;;;2.50;;
56391;SDS011;42289;53.582;9.714;2022-10-10T08:49:46;6.78;;;1.88;;
56391;SDS011;42289;53.582;9.714;2022-10-10T08:52:21;6.20;;;2.20;;
56391;SDS011;42289;53.582;9.714;2022-10-10T08:54:55;6.57;;;2.08;;
56391;SDS011;42289;53.582;9.714;2022-10-10T08:57:23;6.47;;;2.25;;
56391;SDS011;42289;53.582;9.714;2022-10-10T08:59:53;6.38;;;2.22;;
56391;SDS011;42289;53.582;9.714;2022-10-10T09:02:26;5.85;;;2.15;;
56391;SDS011;42289;53.582;9.714;2022-10-10T09:04:58;3.85;;;2.08;;
56391;SDS011;42289;53.582;9.714;2022-10-10T09:07:28;7.15;;;2.25;;
56391;SDS011;42289;53.582;9.714;2022-10-10T09:10:04;5.90;;;2.20;;
56391;SDS011;42289;53.582;9.714;2022-10-10T09:12:41;7.38;;;2.28;;
56391;SDS011;42289;53.582;9.714;2022-10-10T09:15:18;8.00;;;2.78;;
56391;SDS011;42289;53.582;9.714;2022-10-10T09:17:50;5.65;;;2.08;;
56391;SDS011;42289;53.582;9.714;2022-10-10T09:20:29;5.93;;;1.90;;
56391;SDS011;42289;53.582;9.714;2022-10-10T09:23:06;6.30;;;1.95;;
56391;SDS011;42289;53.582;9.714;2022-10-10T09:25:39;4.68;;;2.15;;
56391;SDS011;42289;53.582;9.714;2022-10-10T09:28:13;5.65;;;2.20;;
56391;SDS011;42289;53.582;9.714;2022-10-10T09:33:17;5.30;;;2.30;;
56391;SDS011;42289;53.582;9.714;2022-10-10T09:35:52;6.78;;;2.20;;
56391;SDS011;42289;53.582;9.714;2022-10-10T09:38:24;5.72;;;2.08;;
56391;SDS011;42289;53.582;9.714;2022-10-10T09:40:57;7.43;;;2.30;;
56391;SDS011;42289;53.582;9.714;2022-10-10T09:43:29;4.82;;;2.22;;
56391;SDS011;42289;53.582;9.714;2022-10-10T09:45:56;5.10;;;2.33;;
56391;SDS011;42289;53.582;9.714;2022-10-10T09:48:25;8.05;;;2.33;;
56391;SDS011;42289;53.582;9.714;2022-10-10T09:50:55;5.93;;;2.10;;
56391;SDS011;42289;53.582;9.714;2022-10-10T09:53:22;6.93;;;2.33;;
56391;SDS011;42289;53.582;9.714;2022-10-10T09:55:48;7.15;;;2.20;;
56391;SDS011;42289;53.582;9.714;2022-10-10T09:58:19;5.38;;;2.30;;
56391;SDS011;42289;53.582;9.714;2022-10-10T10:00:52;8.18;;;2.30;;
56391;SDS011;42289;53.582;9.714;2022-10-10T10:03:19;8.40;;;2.65;;
56391;SDS011;42289;53.582;9.714;2022-10-10T10:05:52;5.65;;;2.33;;
56391;SDS011;42289;53.582;9.714;2022-10-10T10:08:24;5.50;;;2.40;;
56391;SDS011;42289;53.582;9.714;2022-10-10T10:10:53;5.93;;;2.08;;
56391;SDS011;42289;53.582;9.714;2022-10-10T10:13:24;7.50;;;2.13;;
56391;SDS011;42289;53.582;9.714;2022-10-10T10:15:55;5.80;;;2.05;;
56391;SDS011;42289;53.582;9.714;2022-10-10T10:18:25;5.43;;;2.10;;
56391;SDS011;42289;53.582;9.714;2022-10-10T10:20:54;4.25;;;2.10;;
56391;SDS011;42289;53.582;9.714;2022-10-10T10:23:39;6.82;;;2.40;;
56391;SDS011;42289;53.582;9.714;2022-10-10T10:26:14;6.68;;;2.15;;
56391;SDS011;42289;53.582;9.714;2022-10-10T10:28:42;6.38;;;2.45;;
56391;SDS011;42289;53.582;9.714;2022-10-10T10:31:13;6.18;;;2.15;;
56391;SDS011;42289;53.582;9.714;2022-10-10T10:33:45;9.30;;;2.53;;
56391;SDS011;42289;53.582;9.714;2022-10-10T10:36:25;4.65;;;2.05;;
56391;SDS011;42289;53.582;9.714;2022-10-10T10:39:02;5.05;;;2.20;;
56391;SDS011;42289;53.582;9.714;2022-10-10T10:41:42;6.30;;;2.05;;
56391;SDS011;42289;53.582;9.714;2022-10-10T10:44:18;7.13;;;2.10;;
56391;SDS011;42289;53.582;9.714;2022-10-10T10:46:58;6.20;;;2.25;;
56391;SDS011;42289;53.582;9.714;2022-10-10T10:49:34;7.53;;;2.30;;
56391;SDS011;42289;53.582;9.714;2022-10-10T10:52:14;9.15;;;2.83;;
56391;SDS011;42289;53.582;9.714;2022-10-10T10:55:03;7.05;;;2.15;;
56391;SDS011;42289;53.582;9.714;2022-10-10T10:57:42;4.78;;;2.20;;
56391;SDS011;42289;53.582;9.714;2022-10-10T11:00:19;5.78;;;2.17;;
56391;SDS011;42289;53.582;9.714;2022-10-10T11:02:48;6.68;;;2.42;;
56391;SDS011;42289;53.582;9.714;2022-10-10T11:05:34;8.30;;;2.20;;
56391;SDS011;42289;53.582;9.714;2022-10-10T11:08:13;8.57;;;2.67;;
56391;SDS011;42289;53.582;9.714;2022-10-10T11:11:02;7.30;;;2.30;;
56391;SDS011;42289;53.582;9.714;2022-10-10T11:13:43;5.93;;;2.22;;
56391;SDS011;42289;53.582;9.714;2022-10-10T11:16:17;6.38;;;2.40;;
56391;SDS011;42289;53.582;9.714;2022-10-10T11:18:58;5.25;;;2.10;;
56391;SDS011;42289;53.582;9.714;2022-10-10T11:21:32;5.93;;;2.35;;
56391;SDS011;42289;53.582;9.714;2022-10-10T11:24:03;5.85;;;2.15;;
56391;SDS011;42289;53.582;9.714;2022-10-10T11:26:38;9.27;;;2.45;;
56391;SDS011;42289;53.582;9.714;2022-10-10T11:29:10;7.68;;;2.50;;
56391;SDS011;42289;53.582;9.714;2022-10-10T11:31:42;6.90;;;2.60;;
56391;SDS011;42289;53.582;9.714;2022-10-10T11:34:13;4.40;;;2.20;;
56391;SDS011;42289;53.582;9.714;2022-10-10T11:36:47;7.15;;;2.05;;
56391;SDS011;42289;53.582;9.714;2022-10-10T11:39:15;6.75;;;2.20;;
56391;SDS011;42289;53.582;9.714;2022-10-10T11:41:48;5.50;;;2.30;;
56391;SDS011;42289;53.582;9.714;2022-10-10T11:44:20;8.98;;;2.50;;
56391;SDS011;42289;53.582;9.714;2022-10-10T11:46:53;7.65;;;2.40;;
56391;SDS011;42289;53.582;9.714;2022-10-10T11:49:26;7.20;;;2.58;;
56391;SDS011;42289;53.582;9.714;2022-10-10T11:52:02;7.88;;;2.60;;
56391;SDS011;42289;53.582;9.714;2022-10-10T11:54:43;8.05;;;2.20;;
56391;SDS011;42289;53.582;9.714;2022-10-10T11:57:17;9.70;;;2.67;;
56391;SDS011;42289;53.582;9.714;2022-10-10T11:59:47;5.20;;;2.50;;
56391;SDS011;42289;53.582;9.714;2022-10-10T12:02:18;6.65;;;3.03;;
56391;SDS011;42289;53.582;9.714;2022-10-10T12:04:49;6.75;;;2.88;;
56391;SDS011;42289;53.582;9.714;2022-10-10T12:07:17;6.85;;;2.75;;
56391;SDS011;42289;53.582;9.714;2022-10-10T12:09:49;6.57;;;2.85;;
56391;SDS011;42289;53.582;9.714;2022-10-10T12:12:23;6.25;;;2.70;;
56391;SDS011;42289;53.582;9.714;2022-10-10T12:14:54;8.52;;;3.33;;
56391;SDS011;42289;53.582;9.714;2022-10-10T12:17:25;8.68;;;3.05;;
56391;SDS011;42289;53.582;9.714;2022-10-10T12:19:55;8.25;;;3.58;;
56391;SDS011;42289;53.582;9.714;2022-10-10T12:22:43;6.22;;;3.10;;
56391;SDS011;42289;53.582;9.714;2022-10-10T12:25:21;8.13;;;3.00;;
56391;SDS011;42289;53.582;9.714;2022-10-10T12:28:05;8.73;;;3.00;;
56391;SDS011;42289;53.582;9.714;2022-10-10T12:39:35;7.05;;;3.10;;
56391;SDS011;42289;53.582;9.714;2022-10-10T12:42:03;9.23;;;3.38;;
56391;SDS011;42289;53.582;9.714;2022-10-10T12:44:56;7.50;;;3.25;;
56391;SDS011;42289;53.582;9.714;2022-10-10T12:47:28;8.75;;;3.25;;
56391;SDS011;42289;53.582;9.714;2022-10-10T12:49:59;8.63;;;2.90;;
56391;SDS011;42289;53.582;9.714;2022-10-10T12:52:27;9.55;;;3.38;;
56391;SDS011;42289;53.582;9.714;2022-10-10T12:55:00;5.97;;;2.88;;
56391;SDS011;42289;53.582;9.714;2022-10-10T12:57:30;7.65;;;3.10;;
56391;SDS011;42289;53.582;9.714;2022-10-10T13:00:04;8.73;;;3.00;;
56391;SDS011;42289;53.582;9.714;2022-10-10T13:02:39;6.88;;;3.05;;
56391;SDS011;42289;53.582;9.714;2022-10-10T13:05:08;7.75;;;3.15;;
56391;SDS011;42289;53.582;9.714;2022-10-10T13:07:37;8.45;;;2.92;;
56391;SDS011;42289;53.582;9.714;2022-10-10T13:10:14;8.70;;;3.15;;
56391;SDS011;42289;53.582;9.714;2022-10-10T13:12:47;6.10;;;2.95;;
56391;SDS011;42289;53.582;9.714;2022-10-10T13:15:25;9.50;;;3.10;;
56391;SDS011;42289;53.582;9.714;2022-10-10T13:17:53;9.27;;;3.55;;
56391;SDS011;42289;53.582;9.714;2022-10-10T13:20:25;4.82;;;2.90;;
56391;SDS011;42289;53.582;9.714;2022-10-10T13:22:54;5.93;;;2.90;;
56391;SDS011;42289;53.582;9.714;2022-10-10T13:25:21;7.60;;;3.60;;
56391;SDS011;42289;53.582;9.714;2022-10-10T13:27:48;7.45;;;3.30;;
56391;SDS011;42289;53.582;9.714;2022-10-10T13:30:17;6.10;;;3.08;;
56391;SDS011;42289;53.582;9.714;2022-10-10T13:32:46;8.93;;;3.03;;
56391;SDS011;42289;53.582;9.714;2022-10-10T13:35:15;7.70;;;3.13;;
56391;SDS011;42289;53.582;9.714;2022-10-10T13:37:44;5.70;;;2.90;;
56391;SDS011;42289;53.582;9.714;2022-10-10T13:40:15;9.23;;;3.45;;
56391;SDS011;42289;53.582;9.714;2022-10-10T13:42:43;7.28;;;2.92;;
56391;SDS011;42289;53.582;9.714;2022-10-10T13:45:31;9.27;;;3.08;;
56391;SDS011;42289;53.582;9.714;2022-10-10T13:48:11;11.80;;;3.45;;
56391;SDS011;42289;53.582;9.714;2022-10-10T13:50:49;7.88;;;2.95;;
56391;SDS011;42289;53.582;9.714;2022-10-10T13:53:21;8.10;;;2.95;;
56391;SDS011;42289;53.582;9.714;2022-10-10T13:55:49;9.32;;;3.00;;
56391;SDS011;42289;53.582;9.714;2022-10-10T13:58:16;6.45;;;3.00;;
56391;SDS011;42289;53.582;9.714;2022-10-10T14:00:43;5.43;;;2.97;;
56391;SDS011;42289;53.582;9.714;2022-10-10T14:03:21;8.77;;;3.00;;
56391;SDS011;42289;53.582;9.714;2022-10-10T14:05:48;9.05;;;3.20;;
56391;SDS011;42289;53.582;9.714;2022-10-10T14:08:15;8.95;;;3.00;;
56391;SDS011;42289;53.582;9.714;2022-10-10T14:10:53;7.15;;;3.03;;
56391;SDS011;42289;53.582;9.714;2022-10-10T14:13:21;10.63;;;3.15;;
56391;SDS011;42289;53.582;9.714;2022-10-10T14:15:49;7.70;;;2.80;;
56391;SDS011;42289;53.582;9.714;2022-10-10T14:18:16;7.85;;;3.63;;
56391;SDS011;42289;53.582;9.714;2022-10-10T14:20:46;6.68;;;2.83;;
56391;SDS011;42289;53.582;9.714;2022-10-10T14:23:13;8.57;;;3.13;;
56391;SDS011;42289;53.582;9.714;2022-10-10T14:25:41;7.45;;;2.70;;
56391;SDS011;42289;53.582;9.714;2022-10-10T14:28:11;7.25;;;2.97;;
56391;SDS011;42289;53.582;9.714;2022-10-10T14:30:41;6.28;;;2.70;;
56391;SDS011;42289;53.582;9.714;2022-10-10T14:33:09;7.53;;;2.90;;
56391;SDS011;42289;53.582;9.714;2022-10-10T14:35:36;8.57;;;2.80;;
56391;SDS011;42289;53.582;9.714;2022-10-10T14:38:05;8.00;;;2.67;;
56391;SDS011;42289;53.582;9.714;2022-10-10T14:40:33;5.55;;;2.58;;
56391;SDS011;42289;53.582;9.714;2022-10-10T14:43:09;5.35;;;2.70;;
56391;SDS011;42289;53.582;9.714;2022-10-10T14:45:35;9.30;;;3.17;;
56391;SDS011;42289;53.582;9.714;2022-10-10T14:48:04;8.90;;;2.67;;
56391;SDS011;42289;53.582;9.714;2022-10-10T14:50:31;6.00;;;2.72;;
56391;SDS011;42289;53.582;9.714;2022-10-10T14:52:59;7.95;;;2.60;;
56391;SDS011;42289;53.582;9.714;2022-10-10T14:55:27;7.13;;;2.92;;
56391;SDS011;42289;53.582;9.714;2022-10-10T14:57:54;5.55;;;2.60;;
56391;SDS011;42289;53.582;9.714;2022-10-10T15:00:21;7.18;;;2.92;;
56391;SDS011;42289;53.582;9.714;2022-10-10T15:02:49;7.28;;;2.80;;
56391;SDS011;42289;53.582;9.714;2022-10-10T15:05:16;6.97;;;2.80;;
56391;SDS011;42289;53.582;9.714;2022-10-10T15:07:43;8.38;;;2.72;;
56391;SDS011;42289;53.582;9.714;2022-10-10T15:10:11;9.07;;;3.13;;
56391;SDS011;42289;53.582;9.714;2022-10-10T15:12:40;8.43;;;2.70;;
56391;SDS011;42289;53.582;9.714;2022-10-10T15:15:09;6.20;;;2.50;;
56391;SDS011;42289;53.582;9.714;2022-10-10T15:17:36;5.43;;;2.70;;
56391;SDS011;42289;53.582;9.714;2022-10-10T15:20:04;6.65;;;2.70;;